Time;durP1;ratioP1;P1;durP2;ratioP2;P2;SDS_P1;SDS_P2;PMS_P1;PMS_P2;Temp;Humidity;BMP_temperature;BMP_pressure;BME280_temperature;BME280_humidity;BME280_pressure;Samples;Min_cycle;Max_cycle;Signal;HPM_P1;HPM_P2
2022/10/22 00:00:10;;;;;;;22.58;15.40;;;;;;;113.29;100.00;99876.53;1685534;82;20981;-65
2022/10/22 00:04:38;;;;;;;21.77;13.70;;;;;;;4.15;100.00;99876.53;1663067;82;21058;-66
2022/10/22 00:10:54;;;;;;;26.23;15.85;;;;;;;-146.14;100.00;121243.23;1662091;83;21269;-71
2022/10/22 00:13:28;;;;;;;;;;;;;;;-145.25;100.00;99876.53;1611484;85;21651;-67
2022/10/22 00:48:04;;;;;;;21.45;14.15;;;;;;;4.15;100.00;99876.53;1606536;87;20130;-64
2022/10/22 01:00:13;;;;;;;20.12;11.53;;;;;;;113.29;100.00;99876.53;1659570;84;21560;-68
2022/10/22 01:02:40;;;;;;;20.25;12.40;;;;;;;4.15;100.00;99876.53;1634356;85;21031;-68
2022/10/22 01:05:57;;;;;;;17.40;12.53;;;;;;;4.15;100.00;99876.53;1691470;82;21405;-67
2022/10/22 01:09:33;;;;;;;17.37;12.13;;;;;;;4.15;100.00;99876.53;1655354;84;21440;-68
2022/10/22 01:12:15;;;;;;;22.02;13.60;;;;;;;4.15;100.00;99876.53;1628030;87;21416;-69
2022/10/22 01:15:24;;;;;;;17.82;12.70;;;;;;;113.29;100.00;99876.53;1629613;85;21033;-68
2022/10/22 01:18:07;;;;;;;17.05;12.13;;;;;;;113.29;100.00;99876.53;1633628;85;20977;-70
2022/10/22 01:22:09;;;;;;;18.30;11.95;;;;;;;113.29;100.00;99876.53;1689432;82;21873;-67
2022/10/22 01:26:24;;;;;;;22.52;12.98;;;;;;;4.15;100.00;99876.53;1643675;84;21038;-68
2022/10/22 01:30:11;;;;;;;39.60;19.82;;;;;;;113.29;100.00;99876.53;1625624;87;21579;-69
2022/10/22 01:34:07;;;;;;;25.57;15.20;;;;;;;113.29;100.00;99876.53;1629953;85;20905;-69
2022/10/22 01:36:35;;;;;;;18.52;13.75;;;;;;;4.15;100.00;29713.17;1607394;87;21482;-67
2022/10/22 01:45:12;;;;;;;27.13;15.75;;;;;;;-146.14;100.00;121243.11;1611773;85;21285;-68
2022/10/22 01:55:46;;;;;;;41.37;19.48;;;;;;;4.15;100.00;99876.53;1630860;85;20977;-66
2022/10/22 02:00:13;;;;;;;23.07;11.93;;;;;;;113.29;100.00;99876.53;1632797;85;33405;-68
2022/10/22 02:09:27;;;;;;;21.68;13.53;;;;;;;4.15;100.00;99876.53;1640026;85;21515;-68
2022/10/22 02:11:58;;;;;;;18.23;11.08;;;;;;;4.15;100.00;99876.53;1645570;85;21030;-66
2022/10/22 02:14:56;;;;;;;22.50;13.53;;;;;;;4.15;100.00;99876.53;1642748;85;21564;-67
2022/10/22 02:18:15;;;;;;;21.52;13.00;;;;;;;4.15;100.00;99876.53;1612047;85;21086;-68
2022/10/22 02:27:50;;;;;;;;;;;;;;;4.15;100.00;99876.53;1653909;86;20935;-63
2022/10/22 02:30:19;;;;;;;22.35;12.37;;;;;;;-146.14;100.00;121243.23;1645336;85;20175;-67
2022/10/22 02:36:31;;;;;;;21.25;14.18;;;;;;;4.15;100.00;99876.53;1633520;84;20956;-65
2022/10/22 02:39:29;;;;;;;22.48;12.18;;;;;;;4.15;100.00;99876.53;1647498;85;21203;-67
2022/10/22 02:45:36;;;;;;;20.20;14.13;;;;;;;4.15;100.00;99876.53;1635687;84;21190;-68
2022/10/22 02:49:46;;;;;;;18.45;12.13;;;;;;;4.15;100.00;99876.53;1639016;85;20998;-69
2022/10/22 03:00:11;;;;;;;18.67;11.73;;;;;;;4.15;100.00;99876.53;1633217;84;21457;-68
2022/10/22 03:08:38;;;;;;;24.07;14.43;;;;;;;4.15;100.00;99876.53;1665935;83;21153;-67
2022/10/22 03:11:59;;;;;;;23.15;14.90;;;;;;;4.15;100.00;99876.53;1610983;87;21283;-65
2022/10/22 03:15:01;;;;;;;25.55;14.68;;;;;;;4.15;100.00;99876.53;1661126;84;21057;-65
2022/10/22 03:19:25;;;;;;;19.52;12.82;;;;;;;4.15;100.00;99876.53;1611896;86;21076;-65
2022/10/22 03:22:50;;;;;;;19.55;13.65;;;;;;;113.29;100.00;99876.53;1659183;84;21536;-69
2022/10/22 03:56:55;;;;;;;23.98;14.23;;;;;;;113.29;100.00;99876.53;1611094;86;21075;-69
2022/10/22 04:03:14;;;;;;;20.52;12.53;;;;;;;4.15;100.00;99876.53;1607783;88;21941;-63
2022/10/22 04:06:46;;;;;;;26.12;13.78;;;;;;;4.15;100.00;99876.53;1641329;84;20913;-63
2022/10/22 04:09:50;;;;;;;19.62;12.37;;;;;;;4.15;100.00;99876.53;1625980;85;20973;-67
2022/10/22 04:13:12;;;;;;;20.70;12.50;;;;;;;4.15;100.00;99876.53;1636555;85;21079;-66
2022/10/22 04:16:13;;;;;;;24.12;14.05;;;;;;;113.29;100.00;99876.53;1631090;85;21658;-67
2022/10/22 04:25:40;;;;;;;17.77;12.47;;;;;;;4.15;100.00;99876.53;1634355;85;21263;-63
2022/10/22 04:36:28;;;;;;;29.40;15.03;;;;;;;113.29;100.00;99876.53;1627369;85;20976;-71
2022/10/22 04:44:35;;;;;;;24.90;14.35;;;;;;;4.15;100.00;99876.53;1626500;85;21031;-64
2022/10/22 04:47:02;;;;;;;18.98;10.65;;;;;;;113.29;100.00;99876.53;1684230;84;20971;-68
2022/10/22 04:52:23;;;;;;;26.57;11.68;;;;;;;4.15;100.00;99876.53;1683655;85;20955;-70
2022/10/22 05:07:29;;;;;;;19.60;13.68;;;;;;;4.15;100.00;99876.53;1683530;85;21132;-69
2022/10/22 05:10:28;;;;;;;18.85;13.15;;;;;;;4.15;100.00;99876.53;1683542;85;20936;-71
2022/10/22 05:12:58;;;;;;;23.70;14.58;;;;;;;4.15;100.00;99876.53;1683782;85;21485;-67
2022/10/22 05:30:56;;;;;;;21.30;13.45;;;;;;;4.15;100.00;99876.53;1667678;83;21387;-65
2022/10/22 05:33:27;;;;;;;14.98;8.70;;;;;;;113.29;100.00;101710.83;1692347;82;20991;-69
2022/10/22 05:36:42;;;;;;;24.92;13.88;;;;;;;4.15;100.00;112603.67;1692379;82;21254;-70
2022/10/22 05:53:18;;;;;;;19.70;10.20;;;;;;;-146.14;100.00;121243.23;1689283;82;20940;-67
2022/10/22 05:55:46;;;;;;;18.87;9.55;;;;;;;-146.14;100.00;121243.23;1686738;82;21534;-68
2022/10/22 05:58:17;;;;;;;19.90;11.43;;;;;;;4.15;100.00;99876.53;1689649;82;20868;-70
2022/10/22 06:00:48;;;;;;;15.45;10.05;;;;;;;4.15;100.00;99876.53;1692071;82;21630;-69
2022/10/22 06:03:31;;;;;;;19.50;11.93;;;;;;;113.29;100.00;99876.53;1687102;82;21327;-68
2022/10/22 06:11:06;;;;;;;15.23;9.53;;;;;;;113.29;100.00;99876.53;1693600;82;21560;-67
2022/10/22 06:14:04;;;;;;;;;;;;;;;-146.14;100.00;121243.23;1697833;82;20960;-71
2022/10/22 06:17:05;;;;;;;18.50;11.30;;;;;;;-146.14;100.00;121243.23;1694107;82;20087;-67
2022/10/22 06:20:28;;;;;;;11.28;7.28;;;;;;;-146.14;100.00;121243.23;1691998;82;20987;-70
2022/10/22 06:25:08;;;;;;;23.25;10.93;;;;;;;-146.14;100.00;121243.23;1642133;86;21242;-71
2022/10/22 06:29:05;;;;;;;15.18;9.20;;;;;;;-146.14;100.00;84985.92;1644650;86;20904;-70
2022/10/22 06:31:48;;;;;;;21.68;11.93;;;;;;;-146.14;77.01;77805.29;1637206;86;21027;-71
2022/10/22 06:34:27;;;;;;;19.57;9.98;;;;;;;-146.14;100.00;121243.23;1624952;86;20960;-70
2022/10/22 06:37:32;;;;;;;13.93;9.93;;;;;;;-146.14;0.00;121243.23;1626469;87;20994;-69
2022/10/22 06:41:03;;;;;;;12.20;6.95;;;;;;;-146.14;0.00;121243.23;1628596;87;21469;-68
2022/10/22 06:43:30;;;;;;;25.40;13.30;;;;;;;4.15;100.00;99876.53;1613206;87;20973;-68
2022/10/22 06:46:11;;;;;;;26.45;12.07;;;;;;;-146.14;100.00;112603.67;1601508;87;21096;-70
2022/10/22 06:48:40;;;;;;;19.05;10.78;;;;;;;113.29;0.00;77805.29;1617457;87;21185;-68
2022/10/22 06:52:17;;;;;;;17.80;9.45;;;;;;;-146.14;100.00;121243.23;1604333;87;21020;-67
2022/10/22 06:54:45;;;;;;;24.30;13.78;;;;;;;4.15;100.00;99876.53;1611013;87;21373;-70
2022/10/22 06:57:21;;;;;;;25.57;13.08;;;;;;;-146.14;100.00;99876.53;1624274;87;21058;-67
2022/10/22 06:59:57;;;;;;;18.67;11.85;;;;;;;113.29;100.00;101710.83;1590326;88;22315;-69
2022/10/22 07:02:35;;;;;;;15.68;9.78;;;;;;;113.29;100.00;99876.53;1634900;86;20953;-67
2022/10/22 07:05:47;;;;;;;16.62;9.65;;;;;;;113.29;100.00;159146.14;1645119;87;20905;-69
2022/10/22 07:08:35;;;;;;;14.95;10.93;;;;;;;4.15;100.00;99876.53;1682935;84;21101;-67
2022/10/22 07:11:15;;;;;;;14.58;10.05;;;;;;;-146.14;100.00;17535.09;1682406;84;20885;-66
2022/10/22 07:14:27;;;;;;;17.48;13.62;;;;;;;-146.14;100.00;121243.23;1671505;83;21511;-69
2022/10/22 07:19:47;;;;;;;17.07;9.73;;;;;;;4.15;100.00;99876.53;1689060;84;20845;-67
2022/10/22 07:22:23;;;;;;;18.02;10.78;;;;;;;113.29;100.00;99876.53;1687481;84;20920;-71
2022/10/22 07:26:41;;;;;;;19.75;9.70;;;;;;;113.29;100.00;99876.53;1688672;84;21172;-70
2022/10/22 07:29:14;;;;;;;;;;;;;;;113.29;100.00;99876.53;1694377;84;21030;-68
2022/10/22 07:31:45;;;;;;;17.65;9.20;;;;;;;-93.79;100.00;99876.53;1688678;85;20102;-70
2022/10/22 07:34:12;;;;;;;20.23;12.82;;;;;;;-146.14;100.00;121243.23;1685995;84;20964;-72
2022/10/22 07:36:45;;;;;;;24.75;11.75;;;;;;;-146.14;100.00;121243.23;1683330;84;20967;-71
2022/10/22 07:39:18;;;;;;;26.20;12.18;;;;;;;4.15;100.00;99876.53;1686290;84;21335;-69
2022/10/22 07:42:16;;;;;;;31.68;17.20;;;;;;;-146.14;100.00;121243.23;1683012;82;20916;-67
2022/10/22 07:44:43;;;;;;;25.10;12.40;;;;;;;4.15;100.00;99876.53;1693657;83;20936;-71
2022/10/22 07:47:11;;;;;;;37.28;19.98;;;;;;;4.15;100.00;99876.53;1685443;84;20936;-69
2022/10/22 07:49:41;;;;;;;24.92;14.38;;;;;;;4.15;100.00;99876.53;1685081;84;20991;-66
2022/10/22 07:54:56;;;;;;;17.07;9.85;;;;;;;-146.14;100.00;121243.23;1681961;84;21501;-73
2022/10/22 07:57:25;;;;;;;24.02;11.20;;;;;;;-145.25;100.00;99876.53;1682998;84;20952;-69
2022/10/22 07:59:56;;;;;;;10.10;5.58;;;;;;;113.29;100.00;99876.53;1687158;84;20934;-68
2022/10/22 08:02:28;;;;;;;18.73;11.03;;;;;;;113.29;100.00;99876.53;1681843;84;21032;-68
2022/10/22 08:04:58;;;;;;;19.50;10.90;;;;;;;-93.79;100.00;99876.53;1679905;84;20926;-69
2022/10/22 08:07:25;;;;;;;17.60;9.65;;;;;;;4.15;100.00;77804.95;1679079;84;21281;-72
2022/10/22 08:09:54;;;;;;;12.28;9.48;;;;;;;113.29;100.00;99876.53;1676509;84;21009;-70
2022/10/22 08:12:21;;;;;;;11.70;7.25;;;;;;;-146.14;100.00;17534.46;1680248;84;20906;-71
2022/10/22 08:14:59;;;;;;;13.35;8.83;;;;;;;-62.37;100.00;99876.53;1680471;84;21061;-72
2022/10/22 08:17:27;;;;;;;23.40;11.50;;;;;;;113.29;100.00;99876.53;1658794;84;20969;-69
2022/10/22 08:19:57;;;;;;;23.73;13.03;;;;;;;-93.79;100.00;99876.53;1676155;84;21160;-69
2022/10/22 08:22:25;;;;;;;16.42;10.98;;;;;;;113.29;100.00;99876.53;1679393;84;20946;-69
2022/10/22 08:25:09;;;;;;;15.95;11.22;;;;;;;113.29;100.00;99876.53;1677854;84;20919;-69
2022/10/22 08:27:37;;;;;;;19.42;11.53;;;;;;;113.29;100.00;99876.53;1679970;85;20897;-68
2022/10/22 08:30:06;;;;;;;16.90;9.95;;;;;;;113.29;100.00;99876.53;1676771;84;20894;-71
2022/10/22 08:32:35;;;;;;;13.08;8.50;;;;;;;113.29;100.00;99876.53;1676515;85;21285;-68
2022/10/22 08:35:10;;;;;;;14.43;9.15;;;;;;;113.29;100.00;156244.08;1662909;85;20910;-69
2022/10/22 08:41:30;;;;;;;16.40;9.53;;;;;;;-146.13;100.00;99876.53;1680751;85;20866;-73
2022/10/22 08:44:27;;;;;;;17.37;9.20;;;;;;;113.29;100.00;99876.53;1678590;84;20902;-68
2022/10/22 08:47:08;;;;;;;24.57;14.38;;;;;;;113.29;100.00;99876.53;1607952;88;21007;-71
2022/10/22 08:49:38;;;;;;;24.05;15.30;;;;;;;113.29;100.00;99876.53;1584908;89;21264;-70
2022/10/22 08:52:04;;;;;;;;;;;;;;;4.15;100.00;99876.53;1600326;89;20961;-68
2022/10/22 08:55:06;;;;;;;18.25;11.63;;;;;;;4.15;100.00;99876.53;1587209;88;20789;-72
2022/10/22 08:57:47;;;;;;;61.88;40.48;;;;;;;4.15;100.00;99876.53;1581516;88;21238;-70
2022/10/22 09:00:32;;;;;;;44.90;25.55;;;;;;;9.51;78.15;99470.09;1582752;88;21057;-68
2022/10/22 09:03:28;;;;;;;17.92;9.58;;;;;;;9.51;78.15;99470.09;1554208;92;21278;-72
2022/10/22 09:06:24;;;;;;;47.85;33.55;;;;;;;9.73;76.53;99487.52;1578461;89;21024;-68
2022/10/22 09:08:53;;;;;;;31.37;19.02;;;;;;;10.13;76.56;99479.11;1551633;90;21074;-69
2022/10/22 09:11:39;;;;;;;17.12;11.20;;;;;;;10.40;71.04;99483.16;1592072;88;20972;-69
2022/10/22 09:14:15;;;;;;;134.65;79.20;;;;;;;9.99;74.14;99485.39;1578326;91;20985;-69
2022/10/22 09:17:32;;;;;;;71.82;44.25;;;;;;;10.04;74.84;99467.20;1578406;91;21482;-68
2022/10/22 09:20:10;;;;;;;50.33;25.32;;;;;;;10.14;73.80;99479.38;1580111;89;21521;-69
2022/10/22 09:22:55;;;;;;;108.17;61.95;;;;;;;10.25;71.27;99483.80;1578335;91;21048;-69
2022/10/22 09:25:27;;;;;;;223.15;130.90;;;;;;;10.21;70.89;99493.41;1642826;84;20980;-68
2022/10/22 09:27:57;;;;;;;146.75;93.52;;;;;;;10.42;70.30;99491.77;1660593;84;21569;-69
2022/10/22 09:30:28;;;;;;;179.05;108.92;;;;;;;10.44;69.21;99470.06;1665013;83;21253;-73
2022/10/22 09:33:15;;;;;;;154.03;94.32;;;;;;;10.75;69.97;99474.33;1656043;85;20928;-70
2022/10/22 09:35:56;;;;;;;38.08;22.85;;;;;;;10.46;69.29;99470.59;1657544;85;20920;-68
2022/10/22 09:38:30;;;;;;;83.67;61.13;;;;;;;10.31;69.27;99457.85;1662118;83;21000;-69
2022/10/22 09:40:59;;;;;;;18.35;10.25;;;;;;;10.32;68.75;99476.92;1668904;84;21044;-71
2022/10/22 09:43:25;;;;;;;33.45;14.50;;;;;;;10.37;70.31;99481.53;1664274;85;21431;-72
2022/10/22 09:45:59;;;;;;;16.27;9.58;;;;;;;10.46;69.83;99475.96;1668509;85;21550;-74
2022/10/22 09:48:33;;;;;;;28.30;12.18;;;;;;;10.46;69.83;99475.96;1664331;85;21084;-72
2022/10/22 09:51:22;;;;;;;18.98;12.47;;;;;;;10.45;69.32;99468.45;1664580;84;20987;-71
2022/10/22 09:54:00;;;;;;;13.25;9.33;;;;;;;10.73;68.53;99467.90;1658913;84;21027;-72
2022/10/22 09:56:38;;;;;;;29.77;22.30;;;;;;;10.87;67.98;99478.98;1653170;86;21580;-69
2022/10/22 09:59:08;;;;;;;50.98;33.75;;;;;;;11.03;68.80;99481.27;1621421;87;21023;-71
2022/10/22 10:01:37;;;;;;;15.50;11.60;;;;;;;11.17;67.41;99489.16;1626378;87;20917;-69
2022/10/22 10:04:09;;;;;;;24.77;12.07;;;;;;;11.12;67.52;99489.92;1620832;88;21548;-72
2022/10/22 10:06:39;;;;;;;18.65;11.97;;;;;;;11.25;66.29;99479.80;1626739;88;21027;-68
2022/10/22 10:09:22;;;;;;;12.73;9.08;;;;;;;11.29;65.23;99476.84;1610226;88;21118;-69
2022/10/22 10:12:20;;;;;;;34.03;21.12;;;;;;;11.06;65.16;99470.80;1674695;84;20997;-68
2022/10/22 10:15:20;;;;;;;22.85;12.00;;;;;;;11.13;66.10;99474.61;1678010;84;21103;-68
2022/10/22 10:18:01;;;;;;;20.17;15.18;;;;;;;11.11;64.84;99480.77;1673906;83;20941;-70
2022/10/22 10:20:57;;;;;;;22.20;15.40;;;;;;;11.06;65.71;99479.40;1677975;84;21049;-69
2022/10/22 10:24:23;;;;;;;29.67;14.38;;;;;;;11.27;66.08;99475.78;1680102;84;21957;-71
2022/10/22 10:26:59;;;;;;;101.95;53.13;;;;;;;11.30;65.63;99471.77;1679685;84;21065;-70
2022/10/22 10:29:43;;;;;;;25.50;14.60;;;;;;;11.30;65.63;99471.77;1678083;84;21052;-71
2022/10/22 10:32:35;;;;;;;23.80;12.80;;;;;;;11.45;64.96;99472.38;1678967;85;21020;-71
2022/10/22 10:35:34;;;;;;;17.92;10.48;;;;;;;11.26;65.15;99465.28;1678956;85;21024;-71
2022/10/22 10:38:40;;;;;;;12.53;8.45;;;;;;;11.26;65.15;99465.28;1679640;85;21464;-70
2022/10/22 10:41:32;;;;;;;88.42;38.35;;;;;;;11.47;64.20;99468.35;1680781;84;20902;-68
2022/10/22 10:44:16;;;;;;;37.90;20.77;;;;;;;11.47;64.20;99468.35;1679071;84;20950;-69
2022/10/22 10:46:55;;;;;;;78.65;47.17;;;;;;;11.20;64.87;99456.39;1663501;85;21070;-68
2022/10/22 10:49:26;;;;;;;46.15;26.77;;;;;;;-145.53;64.87;99456.39;1658677;85;20931;-72
2022/10/22 10:52:18;;;;;;;16.48;10.78;;;;;;;11.20;64.87;99456.39;1660715;86;21317;-68
2022/10/22 10:55:20;;;;;;;68.95;60.43;;;;;;;11.20;64.87;99456.39;1660602;86;21442;-73
2022/10/22 10:58:20;;;;;;;24.98;18.87;;;;;;;11.47;64.61;99439.33;1656020;83;21008;-74
2022/10/22 11:00:58;;;;;;;51.18;38.73;;;;;;;11.67;64.02;99419.78;1638452;86;21031;-72
2022/10/22 11:03:39;;;;;;;16.65;8.75;;;;;;;11.70;63.94;99417.36;1632846;86;21080;-71
2022/10/22 11:06:10;;;;;;;17.02;10.88;;;;;;;11.72;62.97;99440.77;1648896;86;22848;-70
2022/10/22 11:08:47;;;;;;;44.90;27.62;;;;;;;11.72;64.25;99444.80;1627488;88;21000;-69
2022/10/22 11:11:26;;;;;;;19.77;13.13;;;;;;;11.93;63.59;99444.87;1635523;85;21537;-70
2022/10/22 11:13:58;;;;;;;13.50;8.18;;;;;;;11.97;62.72;99439.25;1629439;88;21080;-74
2022/10/22 11:16:31;;;;;;;27.35;17.27;;;;;;;11.73;62.51;99435.64;1634105;86;21662;-70
2022/10/22 11:19:21;;;;;;;23.05;12.68;;;;;;;11.73;62.51;99435.64;1648808;86;21203;-71
2022/10/22 11:21:54;;;;;;;24.05;15.15;;;;;;;11.85;63.24;99426.00;1681761;84;21042;-70
2022/10/22 11:24:37;;;;;;;21.37;15.13;;;;;;;11.90;63.92;99405.07;1684748;84;21625;-69
2022/10/22 11:27:36;;;;;;;25.23;13.08;;;;;;;12.05;63.56;99411.02;1684122;84;21530;-70
2022/10/22 11:30:18;;;;;;;25.82;16.23;;;;;;;12.09;62.69;99402.15;1684220;84;20862;-72
2022/10/22 11:32:49;;;;;;;27.85;15.80;;;;;;;12.09;62.69;99402.15;1688386;83;21757;-70
2022/10/22 11:35:21;;;;;;;76.47;50.43;;;;;;;12.37;61.54;99392.77;1684008;83;21633;-73
2022/10/22 11:37:48;;;;;;;24.35;13.50;;;;;;;12.34;61.24;99388.44;1683603;84;21688;-71
2022/10/22 11:40:22;;;;;;;32.20;20.12;;;;;;;12.70;60.57;99383.04;1680352;84;21115;-71
2022/10/22 11:42:57;;;;;;;20.23;10.80;;;;;;;12.92;60.76;99378.14;1678643;84;21117;-73
2022/10/22 11:45:32;;;;;;;16.93;8.80;;;;;;;12.98;59.80;99381.63;1676436;84;21410;-70
2022/10/22 11:48:17;;;;;;;13.38;9.23;;;;;;;13.05;59.06;99382.95;1600352;88;21493;-73
2022/10/22 11:50:53;;;;;;;59.27;42.85;;;;;;;12.90;59.19;99379.50;1600960;88;21124;-68
2022/10/22 11:53:33;;;;;;;58.30;43.52;;;;;;;12.78;59.56;99387.86;1574035;89;21136;-71
2022/10/22 11:56:11;;;;;;;61.53;46.25;;;;;;;12.86;59.39;99385.95;1597609;88;20983;-73
2022/10/22 11:58:42;;;;;;;25.17;16.27;;;;;;;12.89;59.42;99377.90;1598765;88;21319;-71
2022/10/22 12:01:16;;;;;;;25.70;16.30;;;;;;;13.07;58.91;99370.01;1604258;88;21562;-71
2022/10/22 12:03:56;;;;;;;31.42;17.35;;;;;;;13.34;59.14;99376.95;1684382;84;20995;-69
2022/10/22 12:06:26;;;;;;;27.02;18.00;;;;;;;13.97;57.77;99393.09;1680685;84;21438;-70
2022/10/22 12:08:59;;;;;;;33.13;23.32;;;;;;;13.99;56.92;99386.33;1689187;83;20964;-73
2022/10/22 12:11:40;;;;;;;24.95;14.30;;;;;;;13.73;57.08;99389.16;1684885;84;21276;-72
2022/10/22 12:14:26;;;;;;;18.15;12.90;;;;;;;14.03;57.27;99390.05;1671294;83;20940;-72
2022/10/22 12:16:58;;;;;;;24.18;16.15;;;;;;;14.02;56.59;99384.95;1691846;84;21015;-70
2022/10/22 12:19:43;;;;;;;19.87;17.45;;;;;;;13.75;56.12;99393.48;1686507;84;20928;-73
2022/10/22 12:22:25;;;;;;;16.05;8.55;;;;;;;13.85;56.39;99405.02;1685214;84;20951;-72
2022/10/22 12:24:53;;;;;;;20.08;10.38;;;;;;;13.49;56.76;99407.08;1660527;85;21280;-70
2022/10/22 12:27:28;;;;;;;15.95;9.20;;;;;;;13.34;57.32;99402.56;1628565;87;21543;-71
2022/10/22 12:29:57;;;;;;;12.98;8.38;;;;;;;13.17;57.41;99404.20;1650737;84;20953;-70
2022/10/22 12:32:34;;;;;;;16.20;9.68;;;;;;;13.12;58.00;99400.72;1693303;84;21043;-71
2022/10/22 12:35:07;;;;;;;15.30;10.70;;;;;;;13.35;57.26;99400.15;1686201;84;21065;-73
2022/10/22 12:37:38;;;;;;;21.27;12.43;;;;;;;13.35;57.24;99393.41;1687904;85;21934;-72
2022/10/22 12:40:21;;;;;;;15.32;9.70;;;;;;;13.25;57.85;99381.27;1684537;84;21423;-73
2022/10/22 12:42:51;;;;;;;13.35;8.43;;;;;;;13.43;57.79;99381.24;1657357;85;21085;-72
2022/10/22 12:45:18;;;;;;;18.65;13.55;;;;;;;13.27;58.13;99373.75;1653662;86;21007;-73
2022/10/22 12:47:50;;;;;;;21.40;11.43;;;;;;;13.13;58.63;99382.11;1626586;87;21039;-70
2022/10/22 12:50:18;;;;;;;17.98;10.70;;;;;;;13.28;58.65;99384.81;1608822;88;21320;-72
2022/10/22 12:52:47;;;;;;;21.93;9.73;;;;;;;13.54;58.18;99381.44;1648956;84;21644;-71
2022/10/22 12:55:17;;;;;;;22.20;12.47;;;;;;;13.39;58.13;99375.58;1655505;84;21047;-71
2022/10/22 12:57:47;;;;;;;14.78;9.93;;;;;;;13.17;58.53;99376.45;1614499;86;22499;-73
2022/10/22 13:00:27;;;;;;;18.90;11.55;;;;;;;13.26;58.06;99371.56;1650655;86;21059;-69
2022/10/22 13:02:56;;;;;;;23.05;12.65;;;;;;;13.26;58.80;99367.52;1597189;88;21399;-70
2022/10/22 13:05:26;;;;;;;23.05;14.68;;;;;;;13.21;58.97;99364.85;1632277;85;21014;-69
2022/10/22 13:08:09;;;;;;;19.82;14.03;;;;;;;13.14;59.29;99369.73;1633517;87;20915;-69
2022/10/22 13:10:39;;;;;;;16.87;9.93;;;;;;;13.11;59.52;99372.98;1633596;87;20911;-72
2022/10/22 13:13:32;;;;;;;21.12;11.50;;;;;;;13.08;59.37;99381.07;1634006;87;20900;-74
2022/10/22 13:16:22;;;;;;;19.52;11.20;;;;;;;13.13;59.12;99378.08;1630005;86;20950;-70
2022/10/22 13:18:51;;;;;;;27.15;14.40;;;;;;;13.01;60.30;99367.63;1629065;86;20938;-70
2022/10/22 13:21:28;;;;;;;25.82;14.50;;;;;;;13.25;60.49;99379.41;1631304;86;20967;-72
2022/10/22 13:23:59;;;;;;;29.70;14.80;;;;;;;13.13;60.31;99381.59;1634030;87;20916;-72
2022/10/22 13:26:35;;;;;;;33.28;16.10;;;;;;;12.94;61.47;99380.03;1630175;87;21087;-72
2022/10/22 13:29:06;;;;;;;33.00;16.82;;;;;;;12.83;61.70;99369.00;1629194;86;21250;-70
2022/10/22 13:31:35;;;;;;;37.98;18.92;;;;;;;12.90;62.10;99354.70;1636909;86;21422;-71
2022/10/22 13:34:05;;;;;;;41.20;22.52;;;;;;;12.92;62.67;99353.09;1631648;86;20899;-71
2022/10/22 13:36:32;;;;;;;33.45;19.77;;;;;;;13.20;62.46;99359.73;1628240;87;21596;-73
2022/10/22 13:38:59;;;;;;;31.52;18.07;;;;;;;13.28;61.63;99360.55;1634689;87;21524;-71
2022/10/22 13:41:31;;;;;;;29.77;17.05;;;;;;;13.51;62.08;99354.48;1633625;86;21691;-72
2022/10/22 13:43:58;;;;;;;32.00;16.20;;;;;;;13.59;61.90;99338.27;1632690;86;21037;-70
2022/10/22 13:46:25;;;;;;;36.80;19.95;;;;;;;13.67;61.07;99329.61;1647778;84;20988;-70
2022/10/22 13:48:54;;;;;;;43.38;20.35;;;;;;;13.82;60.76;99321.16;1654533;86;21545;-70
2022/10/22 13:51:26;;;;;;;28.60;17.77;;;;;;;14.01;60.05;99301.02;1660647;85;21030;-71
2022/10/22 13:53:53;;;;;;;32.42;18.87;;;;;;;13.87;60.46;99302.23;1658593;85;21134;-70
2022/10/22 13:56:20;;;;;;;27.10;14.28;;;;;;;14.12;59.81;99304.71;1665698;85;21035;-70
2022/10/22 13:58:47;;;;;;;23.18;13.08;;;;;;;14.40;58.97;99300.14;1658694;84;21091;-71
2022/10/22 14:01:25;;;;;;;26.17;13.55;;;;;;;14.21;58.60;99295.47;1669832;83;20939;-72
2022/10/22 14:03:57;;;;;;;22.98;14.98;;;;;;;13.93;58.67;99276.26;1688333;83;21063;-73
2022/10/22 14:06:27;;;;;;;23.57;14.25;;;;;;;13.85;58.94;99281.47;1691788;84;21323;-73
2022/10/22 14:08:57;;;;;;;29.63;15.00;;;;;;;13.88;59.40;99278.20;1686971;83;20968;-69
2022/10/22 14:11:33;;;;;;;23.12;11.88;;;;;;;13.54;60.55;99266.05;1684609;83;20896;-70
2022/10/22 14:14:03;;;;;;;24.95;13.20;;;;;;;13.70;60.44;99249.48;1686745;84;20919;-72
2022/10/22 14:16:31;;;;;;;25.32;15.10;;;;;;;13.67;60.55;99244.66;1681903;84;21477;-71
2022/10/22 14:18:58;;;;;;;;;;;;;;;13.60;60.38;99253.60;1686036;84;21643;-72
2022/10/22 14:21:25;;;;;;;41.02;22.00;;;;;;;13.30;60.88;99246.50;1681570;83;20101;-70
2022/10/22 14:23:53;;;;;;;41.63;23.75;;;;;;;13.17;61.41;99246.55;1651040;84;21060;-71
2022/10/22 14:26:30;;;;;;;33.67;17.60;;;;;;;12.92;62.50;99239.96;1688233;84;20963;-71
2022/10/22 14:29:01;;;;;;;31.62;17.92;;;;;;;12.75;63.45;99233.02;1686098;82;21011;-71
2022/10/22 14:31:28;;;;;;;33.28;16.42;;;;;;;12.58;64.59;99225.81;1689065;84;22000;-70
2022/10/22 14:33:55;;;;;;;25.57;15.45;;;;;;;12.09;67.54;99219.76;1681558;84;20919;-70
2022/10/22 14:36:21;;;;;;;20.90;13.45;;;;;;;12.04;68.75;99221.11;1682541;84;21000;-69
2022/10/22 14:38:48;;;;;;;25.02;15.28;;;;;;;11.90;69.88;99236.98;1685548;83;20939;-69
2022/10/22 14:41:22;;;;;;;23.18;15.23;;;;;;;11.84;70.91;99247.46;1685965;84;20927;-68
2022/10/22 14:43:49;;;;;;;40.40;31.68;;;;;;;11.72;72.37;99251.75;1680403;83;20967;-71
2022/10/22 14:46:17;;;;;;;31.90;26.77;;;;;;;11.63;74.66;99256.05;1672198;84;20953;-70
2022/10/22 14:48:44;;;;;;;41.63;30.75;;;;;;;11.43;76.12;99261.66;1637139;86;21024;-71
2022/10/22 14:51:15;;;;;;;63.17;43.48;;;;;;;11.26;78.37;99257.06;1624015;86;20976;-72
2022/10/22 14:53:42;;;;;;;51.35;31.97;;;;;;;11.14;80.14;99258.64;1591403;89;21065;-69
2022/10/22 14:56:11;;;;;;;54.53;37.17;;;;;;;11.02;81.88;99262.09;1608947;87;21239;-69
2022/10/22 14:58:39;;;;;;;44.13;28.98;;;;;;;11.19;82.34;99257.30;1611293;88;21011;-69
2022/10/22 15:01:07;;;;;;;59.63;41.57;;;;;;;10.77;85.56;99246.16;1616664;86;20985;-69
2022/10/22 15:03:35;;;;;;;64.45;38.05;;;;;;;10.75;87.07;99240.23;1633751;86;21008;-69
2022/10/22 15:06:03;;;;;;;55.85;31.75;;;;;;;10.44;89.97;99243.34;1631709;86;21103;-69
2022/10/22 15:08:31;;;;;;;;;;;;;;;10.23;92.11;99235.66;1689042;83;21513;-71
2022/10/22 15:11:05;;;;;;;1268.85;578.58;;;;;;;10.25;92.88;99245.60;1685650;84;20256;-71
2022/10/22 15:13:34;;;;;;;457.70;125.67;;;;;;;10.16;94.16;99233.20;1689356;83;20998;-70
2022/10/22 15:16:03;;;;;;;472.60;220.27;;;;;;;10.40;92.18;99236.33;1689102;84;21511;-71
2022/10/22 15:18:30;;;;;;;142.82;71.77;;;;;;;10.40;92.18;99236.33;1640514;85;21008;-71
2022/10/22 15:21:00;;;;;;;157.20;75.22;;;;;;;9.75;98.01;99236.11;1652318;86;21267;-69
2022/10/22 15:23:27;;;;;;;174.57;87.50;;;;;;;9.75;98.01;99236.11;1625331;86;20993;-69
2022/10/22 15:25:54;;;;;;;92.40;54.38;;;;;;;9.75;100.00;99253.53;1651338;85;21065;-69
2022/10/22 15:28:22;;;;;;;73.30;46.20;;;;;;;9.75;100.00;99253.53;1633555;86;21566;-70
2022/10/22 15:30:55;;;;;;;107.67;58.73;;;;;;;9.69;100.00;99246.53;1625071;86;21051;-71
2022/10/22 15:33:23;;;;;;;179.25;94.97;;;;;;;10.24;97.46;99247.99;1659554;86;21114;-71
2022/10/22 15:35:50;;;;;;;171.35;91.15;;;;;;;10.24;97.46;99247.99;1683057;84;21584;-70
2022/10/22 15:38:17;;;;;;;228.77;122.85;;;;;;;-6.03;97.46;99247.99;1687253;84;21042;-69
2022/10/22 15:40:44;;;;;;;197.17;92.97;;;;;;;-6.03;97.46;99247.99;1687253;84;20932;-68
2022/10/22 15:43:10;;;;;;;138.05;75.37;;;;;;;10.24;97.46;99247.99;1680573;84;20872;-71
2022/10/22 15:45:37;;;;;;;133.30;68.47;;;;;;;10.24;97.46;99247.99;1675138;82;21177;-71
2022/10/22 15:48:04;;;;;;;147.80;74.00;;;;;;;9.99;100.00;99266.86;1658341;84;20957;-69
2022/10/22 15:50:31;;;;;;;140.97;65.85;;;;;;;10.08;100.00;99266.67;1652511;85;21534;-70